Portada
METAR-TAF:

METAR-TAF

Aeropuertos :

Hassi Messaoud, Argelia

latitud: 31-40N, longitud: 006-09E, altitud: 142 m

Observación

El informe se hizo hace 57 minutos, a las 10:00 UTC
Viento 13 kt del oeste-suroeste
Temperatura 37°C
Presión 1007 hPa
Visibilidad: 5000 m

METAR: DAUH 191000Z 24013KT 5000 NSC 37/// Q1007

Hora: 11:57 (10:57 UTC)

Pronóstico

El informe se hizo hace 5 horas y 57 minutos, a las 05:00 UTC
Pronóstico válido del 19 a las 06 UTC al 20 a las 06 UTC
Viento 9 kt del sur-suroeste
Visibilidad: 7000 m
Probabilidad 40%
del 19 a las 12 UTC al 19 a las 18 UTC
Viento 22 kt del suroeste
Visibilidad: 4000 m
Ventisca baja de arena,

TAF: DAUH 190500Z 1906/2006 20009KT 7000 NSC PROB40 1912/1918 22022KT 4000 DRSA

Observaciones y pronósticos meteorológicos de más de 4000 aeropuertos (mensajes METAR y TAF).

Los puntos amarillos y rojos representan las estaciones disponibles.

Ponga el ratón en el punto deseado para ver el nombre de la estación.

Haga clic para ver las observaciones y los pronósticos meteorológicos.

Para cambiar el mapa : haga clic en los botones verdes con una cruz de color negro para hacer un zoom, en el botón verde con un guión para alejar o en las flechas verdes para mapas adyacentes.


METAR-TAF: